Time;durP1;ratioP1;P1;durP2;ratioP2;P2;SDS_P1;SDS_P2;PMS_P1;PMS_P2;Temp;Humidity;BMP_temperature;BMP_pressure;BME280_temperature;BME280_humidity;BME280_pressure;Samples;Min_cycle;Max_cycle;Signal;HPM_P1;HPM_P2
2022/07/20 00:00:39;;;;;;;3.47;2.08;;;28.70;49.80;;;;;;5010925;28;20042;-73
2022/07/20 00:03:06;;;;;;;4.63;2.20;;;28.60;50.30;;;;;;5022391;28;20440;-74
2022/07/20 00:05:32;;;;;;;2.95;1.70;;;28.60;50.10;;;;;;5029501;28;20030;-73
2022/07/20 00:07:58;;;;;;;5.07;2.47;;;28.60;51.00;;;;;;5020975;28;20084;-73
2022/07/20 00:13:09;;;;;;;3.45;1.90;;;28.50;49.40;;;;;;5022455;28;20037;-74
2022/07/20 00:15:35;;;;;;;3.17;1.90;;;28.50;50.50;;;;;;5027237;28;20029;-74
2022/07/20 00:18:00;;;;;;;4.65;1.92;;;28.50;51.30;;;;;;5023152;28;20041;-74
2022/07/20 00:20:26;;;;;;;3.55;2.17;;;28.40;50.40;;;;;;5024257;28;20021;-74
2022/07/20 00:22:52;;;;;;;3.35;1.95;;;28.40;50.40;;;;;;5008363;28;20124;-73
2022/07/20 00:25:18;;;;;;;3.80;1.80;;;28.40;50.40;;;;;;5024676;28;20079;-73
2022/07/20 00:27:44;;;;;;;3.70;1.90;;;28.30;51.20;;;;;;5028086;28;20030;-74
2022/07/20 00:30:11;;;;;;;4.07;2.00;;;28.30;51.60;;;;;;5019750;28;20124;-73
2022/07/20 00:32:38;;;;;;;6.15;2.90;;;28.30;52.30;;;;;;5003593;28;20024;-74
2022/07/20 00:35:10;;;;;;;3.45;2.15;;;28.20;46.40;;;;;;5028905;28;20017;-74
2022/07/20 00:37:36;;;;;;;3.90;2.30;;;28.10;50.00;;;;;;5003161;28;20030;-74
2022/07/20 00:40:03;;;;;;;2.65;1.70;;;28.10;49.80;;;;;;5020466;28;20463;-74
2022/07/20 00:42:28;;;;;;;4.22;2.03;;;28.10;51.00;;;;;;5010234;28;20021;-74
2022/07/20 00:44:54;;;;;;;4.97;2.17;;;28.10;50.40;;;;;;5022263;28;20028;-74
2022/07/20 00:47:20;;;;;;;4.63;2.53;;;28.00;51.00;;;;;;5009796;28;20117;-74
2022/07/20 00:49:45;;;;;;;3.80;1.98;;;28.00;51.20;;;;;;5022004;28;20025;-75
2022/07/20 00:52:12;;;;;;;3.70;1.88;;;28.00;50.40;;;;;;5010122;28;20072;-75
2022/07/20 00:54:39;;;;;;;6.55;2.83;;;27.90;50.90;;;;;;5017389;28;20052;-75
2022/07/20 00:57:05;;;;;;;4.22;2.10;;;27.90;47.00;;;;;;5031060;28;20032;-75
2022/07/20 00:59:31;;;;;;;3.25;2.15;;;27.90;47.40;;;;;;5025185;28;20025;-74
2022/07/20 01:01:58;;;;;;;7.03;3.33;;;27.90;50.20;;;;;;4996579;28;20072;-74
2022/07/20 01:04:23;;;;;;;4.38;2.20;;;27.90;46.10;;;;;;4997675;28;20425;-75
2022/07/20 01:06:49;;;;;;;5.25;2.80;;;27.90;50.10;;;;;;5016123;28;20034;-75
2022/07/20 01:09:20;;;;;;;9.15;3.30;;;27.80;48.10;;;;;;5013723;28;20045;-74
2022/07/20 01:11:46;;;;;;;3.50;2.00;;;27.80;46.60;;;;;;5018322;28;20492;-75
2022/07/20 01:14:11;;;;;;;5.25;2.72;;;27.80;47.90;;;;;;5010413;28;20030;-74
2022/07/20 01:16:38;;;;;;;5.82;3.08;;;27.80;46.40;;;;;;5028346;28;20022;-75
2022/07/20 01:19:06;;;;;;;4.28;2.40;;;27.80;47.30;;;;;;5027273;28;20446;-75
2022/07/20 01:21:33;;;;;;;4.90;2.20;;;27.80;47.00;;;;;;5017909;28;20014;-74
2022/07/20 01:23:58;;;;;;;3.85;2.42;;;27.80;47.90;;;;;;5028206;28;20029;-73
2022/07/20 01:26:24;;;;;;;4.05;1.90;;;27.70;48.50;;;;;;5020583;28;20087;-73
2022/07/20 01:28:50;;;;;;;3.85;2.03;;;27.70;48.40;;;;;;5008922;28;20109;-73
2022/07/20 01:31:16;;;;;;;6.53;3.00;;;27.70;47.20;;;;;;5004153;28;20025;-74
2022/07/20 01:33:41;;;;;;;5.18;2.88;;;27.70;47.50;;;;;;5025875;28;20025;-73
2022/07/20 01:36:07;;;;;;;3.45;2.25;;;27.60;46.80;;;;;;4999239;28;20380;-74
2022/07/20 01:38:33;;;;;;;4.38;2.35;;;27.60;46.30;;;;;;5019133;28;20556;-74
2022/07/20 01:40:58;;;;;;;6.90;3.28;;;27.60;45.50;;;;;;5023824;28;20029;-74
2022/07/20 01:43:24;;;;;;;5.30;2.67;;;27.50;45.00;;;;;;5013247;28;20030;-74
2022/07/20 01:45:50;;;;;;;4.70;2.63;;;27.50;43.90;;;;;;5012710;28;20103;-74
2022/07/20 01:48:15;;;;;;;5.63;2.67;;;27.50;45.30;;;;;;5022050;28;20029;-74
2022/07/20 01:50:41;;;;;;;6.28;3.00;;;27.40;44.20;;;;;;5024631;28;20462;-74
2022/07/20 01:53:08;;;;;;;6.25;2.80;;;27.40;43.90;;;;;;5015505;28;20034;-74
2022/07/20 01:55:34;;;;;;;7.18;3.50;;;27.40;43.30;;;;;;5018573;28;20071;-73
2022/07/20 01:58:00;;;;;;;5.03;2.60;;;27.40;45.40;;;;;;4999418;28;20025;-73
2022/07/20 02:00:26;;;;;;;5.63;2.60;;;27.40;45.00;;;;;;5026891;28;20037;-74
2022/07/20 02:02:53;;;;;;;3.95;2.30;;;27.30;44.80;;;;;;5016576;28;20355;-74
2022/07/20 02:05:19;;;;;;;4.03;2.17;;;27.30;44.80;;;;;;5028422;28;20025;-75
2022/07/20 02:07:45;;;;;;;5.15;2.85;;;27.30;46.10;;;;;;5020822;28;20080;-74
2022/07/20 02:10:13;;;;;;;5.78;3.05;;;27.20;44.60;;;;;;5019457;28;20049;-75
2022/07/20 02:12:39;;;;;;;9.55;3.22;;;27.20;45.30;;;;;;5015159;28;20077;-73
2022/07/20 02:15:09;;;;;;;5.68;2.75;;;27.20;43.80;;;;;;5026979;28;20439;-73
2022/07/20 02:17:35;;;;;;;12.32;3.10;;;27.20;43.80;;;;;;5014720;28;20103;-73
2022/07/20 02:20:03;;;;;;;7.07;3.22;;;27.10;43.50;;;;;;5027156;28;20107;-74
2022/07/20 02:22:29;;;;;;;7.35;3.47;;;27.00;43.70;;;;;;5018499;28;20137;-74
2022/07/20 02:24:55;;;;;;;8.45;3.03;;;27.00;43.50;;;;;;5022536;28;20117;-74
2022/07/20 02:27:20;;;;;;;10.57;3.80;;;27.00;43.80;;;;;;5022722;28;20128;-73
2022/07/20 02:29:47;;;;;;;7.15;3.30;;;26.90;43.70;;;;;;5027069;28;20048;-73
2022/07/20 02:32:13;;;;;;;6.32;3.55;;;26.90;44.00;;;;;;5003832;28;20439;-73
2022/07/20 02:34:38;;;;;;;9.63;3.47;;;26.80;43.90;;;;;;5021041;28;20487;-74
2022/07/20 02:37:04;;;;;;;6.88;3.22;;;26.80;43.90;;;;;;5022911;28;20052;-74
2022/07/20 02:39:29;;;;;;;9.95;3.55;;;26.80;45.20;;;;;;5017755;28;20104;-74
2022/07/20 02:41:55;;;;;;;6.20;2.92;;;26.70;45.00;;;;;;5025545;28;20160;-74
2022/07/20 02:44:21;;;;;;;9.65;2.88;;;26.60;44.60;;;;;;5016236;28;20022;-74
2022/07/20 02:46:46;;;;;;;7.25;3.85;;;26.60;44.50;;;;;;5027594;28;20425;-75
2022/07/20 02:49:12;;;;;;;7.85;3.53;;;26.60;44.60;;;;;;5015819;28;20540;-75
2022/07/20 02:51:38;;;;;;;4.93;2.75;;;26.50;43.80;;;;;;5027197;28;20033;-74
2022/07/20 02:54:03;;;;;;;6.40;3.03;;;26.50;44.30;;;;;;5014242;28;20046;-73
2022/07/20 02:56:29;;;;;;;5.10;3.08;;;26.50;44.80;;;;;;5009128;28;20085;-74
2022/07/20 02:58:54;;;;;;;9.75;3.42;;;26.50;44.60;;;;;;5007195;28;20052;-74
2022/07/20 03:01:20;;;;;;;8.10;3.55;;;26.40;44.20;;;;;;5007589;28;20025;-74
2022/07/20 03:03:46;;;;;;;6.68;3.60;;;26.40;44.30;;;;;;5017968;28;20024;-74
2022/07/20 03:06:11;;;;;;;7.22;3.00;;;26.40;44.50;;;;;;5013894;28;20088;-74
2022/07/20 03:08:37;;;;;;;6.53;3.33;;;26.40;44.50;;;;;;5014361;28;20025;-74
2022/07/20 03:11:02;;;;;;;9.70;3.60;;;26.30;44.30;;;;;;5024024;28;20111;-74
2022/07/20 03:13:28;;;;;;;5.13;3.00;;;26.30;44.30;;;;;;5010301;28;20018;-74
2022/07/20 03:15:54;;;;;;;7.88;3.50;;;26.30;44.70;;;;;;5006342;28;20452;-74
2022/07/20 03:18:20;;;;;;;7.97;3.47;;;26.20;44.70;;;;;;5029967;28;20037;-74
2022/07/20 03:20:46;;;;;;;12.00;4.05;;;26.10;45.00;;;;;;5014201;28;20030;-74
2022/07/20 03:23:11;;;;;;;5.35;3.30;;;26.10;45.10;;;;;;5025672;28;20072;-74
2022/07/20 03:25:37;;;;;;;7.68;3.33;;;26.10;45.30;;;;;;5019965;28;20028;-74
2022/07/20 03:28:03;;;;;;;8.80;4.13;;;26.00;46.00;;;;;;5030977;28;20184;-74
2022/07/20 03:30:29;;;;;;;8.50;3.22;;;26.00;45.70;;;;;;5018622;28;20025;-73
2022/07/20 03:32:56;;;;;;;7.97;3.95;;;25.90;45.70;;;;;;5031708;28;20102;-73
2022/07/20 03:35:22;;;;;;;7.93;3.63;;;25.90;45.90;;;;;;5008061;28;20030;-73
2022/07/20 03:37:48;;;;;;;8.38;3.60;;;25.90;45.80;;;;;;5010971;28;20400;-73
2022/07/20 03:40:14;;;;;;;10.50;3.85;;;25.80;45.80;;;;;;5015534;28;20034;-73
2022/07/20 03:42:40;;;;;;;8.07;4.07;;;25.80;45.70;;;;;;5029410;28;20147;-74
2022/07/20 03:45:06;;;;;;;5.43;3.30;;;25.80;45.80;;;;;;5023089;28;20483;-73
2022/07/20 03:47:33;;;;;;;6.78;3.40;;;25.70;46.00;;;;;;5030568;28;20037;-73
2022/07/20 03:49:58;;;;;;;6.68;3.83;;;25.70;46.20;;;;;;5024036;28;20484;-73
2022/07/20 03:52:24;;;;;;;11.23;4.30;;;25.70;45.90;;;;;;5024146;28;20032;-73
2022/07/20 03:54:49;;;;;;;6.60;3.80;;;25.70;46.30;;;;;;5028183;28;20060;-74
2022/07/20 03:57:15;;;;;;;7.60;4.53;;;25.70;46.00;;;;;;5019765;28;20109;-74
2022/07/20 03:59:41;;;;;;;10.98;4.57;;;25.60;46.00;;;;;;5011387;28;20048;-75
2022/07/20 04:02:06;;;;;;;7.93;3.60;;;25.60;46.20;;;;;;5021704;28;20362;-74
2022/07/20 04:04:32;;;;;;;9.05;4.43;;;25.60;46.70;;;;;;5011805;28;20609;-74
2022/07/20 04:06:58;;;;;;;9.25;4.43;;;25.50;47.00;;;;;;5019263;28;20037;-75
2022/07/20 04:12:11;;;;;;;10.80;4.38;;;25.50;47.90;;;;;;5007076;28;20448;-74
2022/07/20 04:14:40;;;;;;;7.82;3.97;;;25.40;48.50;;;;;;5009736;28;20088;-74
2022/07/20 04:17:06;;;;;;;8.73;5.10;;;25.30;48.90;;;;;;5024442;28;20025;-74
2022/07/20 04:19:33;;;;;;;9.55;4.97;;;25.30;49.40;;;;;;5010666;28;20170;-75
2022/07/20 04:21:59;;;;;;;9.80;5.45;;;25.20;49.30;;;;;;5004555;28;20071;-74
2022/07/20 04:24:27;;;;;;;7.70;5.05;;;25.10;49.50;;;;;;5010349;28;20022;-75
2022/07/20 04:26:52;;;;;;;9.25;5.38;;;25.10;49.80;;;;;;5014314;28;20427;-74
2022/07/20 04:29:18;;;;;;;11.85;5.28;;;24.90;50.00;;;;;;5029232;28;20017;-74
2022/07/20 04:31:44;;;;;;;12.18;5.70;;;24.90;50.30;;;;;;5028129;28;20029;-74
2022/07/20 04:34:10;;;;;;;14.15;6.63;;;24.80;50.60;;;;;;5010971;28;20034;-74
2022/07/20 04:36:35;;;;;;;12.82;6.68;;;24.80;51.00;;;;;;5017483;28;20025;-75
2022/07/20 04:39:01;;;;;;;14.65;6.72;;;24.70;51.50;;;;;;5021725;28;20021;-74
2022/07/20 04:41:26;;;;;;;12.00;7.05;;;24.70;52.00;;;;;;5025964;28;20017;-75
2022/07/20 04:43:52;;;;;;;15.00;7.88;;;24.60;52.40;;;;;;5021085;28;20033;-75
2022/07/20 04:46:18;;;;;;;12.18;6.90;;;24.60;52.80;;;;;;5025529;28;20120;-74
2022/07/20 04:48:43;;;;;;;13.23;7.93;;;24.60;53.10;;;;;;5028253;28;20025;-74
2022/07/20 04:51:09;;;;;;;16.33;8.73;;;24.50;53.70;;;;;;5028244;28;20021;-74
2022/07/20 04:53:34;;;;;;;16.85;9.57;;;24.50;54.10;;;;;;5016608;28;20064;-74
2022/07/20 04:56:00;;;;;;;16.30;9.27;;;24.50;55.20;;;;;;5029228;28;20033;-74
2022/07/20 04:58:26;;;;;;;17.15;11.13;;;24.40;55.70;;;;;;5028008;28;20072;-74
2022/07/20 05:00:51;;;;;;;20.40;12.55;;;24.40;56.50;;;;;;5029365;28;20013;-74
2022/07/20 05:03:17;;;;;;;26.95;12.95;;;24.50;57.40;;;;;;5028086;28;20432;-74
2022/07/20 05:05:43;;;;;;;21.42;13.35;;;24.50;57.90;;;;;;5009084;28;20041;-74
2022/07/20 05:08:08;;;;;;;18.05;13.73;;;24.40;58.50;;;;;;5012286;28;20030;-75
2022/07/20 05:10:35;;;;;;;24.00;13.23;;;24.40;59.00;;;;;;5027597;28;20447;-75
2022/07/20 05:13:00;;;;;;;24.05;14.98;;;24.50;59.60;;;;;;5020871;28;20044;-74
2022/07/20 05:15:26;;;;;;;26.17;15.27;;;24.50;60.30;;;;;;5024433;28;20026;-74
2022/07/20 05:17:52;;;;;;;25.13;15.60;;;24.50;61.10;;;;;;5024132;28;20022;-74
2022/07/20 05:20:20;;;;;;;20.45;15.70;;;24.50;61.70;;;;;;5022721;28;20080;-74
2022/07/20 05:22:46;;;;;;;26.05;17.10;;;24.60;62.10;;;;;;5009445;28;20067;-74
2022/07/20 05:25:12;;;;;;;31.20;19.13;;;24.60;62.40;;;;;;5017485;28;20077;-74
2022/07/20 05:27:40;;;;;;;30.90;19.40;;;24.60;63.50;;;;;;5009910;28;20064;-74
2022/07/20 05:30:06;;;;;;;31.38;22.42;;;24.60;64.40;;;;;;5020003;28;20026;-74
2022/07/20 05:32:31;;;;;;;29.35;21.42;;;24.60;64.50;;;;;;5023777;28;20113;-73
2022/07/20 05:34:57;;;;;;;26.40;17.48;;;24.70;64.70;;;;;;5025329;28;20064;-72
2022/07/20 05:37:23;;;;;;;22.83;15.98;;;24.70;64.50;;;;;;5023996;28;20181;-73
2022/07/20 05:39:48;;;;;;;25.45;18.58;;;24.70;63.80;;;;;;5021158;28;20014;-73
2022/07/20 05:42:14;;;;;;;26.05;19.20;;;24.80;64.20;;;;;;5028979;28;20025;-73
2022/07/20 05:44:41;;;;;;;32.28;21.98;;;24.80;64.50;;;;;;5002097;28;20092;-74
2022/07/20 05:47:06;;;;;;;25.27;20.38;;;24.80;65.30;;;;;;5009505;28;20057;-74
2022/07/20 05:49:33;;;;;;;29.90;22.23;;;24.80;65.20;;;;;;5019489;28;20064;-73
2022/07/20 05:51:59;;;;;;;32.35;23.25;;;24.90;65.60;;;;;;5013058;28;20441;-74
2022/07/20 05:54:25;;;;;;;32.25;21.52;;;24.90;65.70;;;;;;5019239;28;20056;-74
2022/07/20 05:56:50;;;;;;;25.85;20.92;;;24.90;65.80;;;;;;5024045;28;20096;-73
2022/07/20 05:59:16;;;;;;;33.90;26.33;;;25.00;66.00;;;;;;5021097;28;20029;-74
2022/07/20 06:01:44;;;;;;;31.90;25.45;;;25.10;66.30;;;;;;5021861;28;20041;-74
2022/07/20 06:04:10;;;;;;;36.83;26.92;;;25.10;66.30;;;;;;5027480;28;20029;-73
2022/07/20 06:06:36;;;;;;;31.27;24.45;;;25.20;66.70;;;;;;5028658;28;20064;-74
2022/07/20 06:09:02;;;;;;;38.55;26.60;;;25.30;66.30;;;;;;5011275;28;20018;-73
2022/07/20 06:11:28;;;;;;;34.05;24.70;;;25.30;66.70;;;;;;5018602;28;20105;-74
2022/07/20 06:13:54;;;;;;;37.00;26.05;;;25.40;66.10;;;;;;5026867;28;20108;-74
2022/07/20 06:16:19;;;;;;;44.80;31.88;;;25.50;66.70;;;;;;5019620;28;20029;-74
2022/07/20 06:18:45;;;;;;;36.45;24.13;;;25.50;67.00;;;;;;4990677;28;20029;-74
2022/07/20 06:21:13;;;;;;;32.83;26.98;;;25.50;66.80;;;;;;5012264;28;20028;-74
2022/07/20 06:23:39;;;;;;;34.15;29.05;;;25.50;67.20;;;;;;5028123;28;20088;-74
2022/07/20 06:26:05;;;;;;;42.45;29.60;;;25.50;67.20;;;;;;5013280;28;20137;-74
2022/07/20 06:28:31;;;;;;;39.67;29.45;;;25.50;67.70;;;;;;5028102;28;20509;-74
2022/07/20 06:30:56;;;;;;;36.70;31.38;;;25.50;67.60;;;;;;5017241;28;20026;-74
2022/07/20 06:33:22;;;;;;;38.28;28.45;;;25.50;68.10;;;;;;5017046;28;20072;-74
2022/07/20 06:35:48;;;;;;;40.03;29.80;;;25.50;68.00;;;;;;5016144;28;20094;-74
2022/07/20 06:38:13;;;;;;;39.97;32.58;;;25.60;68.40;;;;;;4981453;28;20586;-73
2022/07/20 06:40:39;;;;;;;38.80;30.48;;;25.60;68.40;;;;;;5013205;28;20549;-73
2022/07/20 06:43:07;;;;;;;33.55;25.58;;;25.60;67.10;;;;;;5015137;28;20127;-73
2022/07/20 06:45:32;;;;;;;39.63;30.55;;;25.60;66.20;;;;;;5011968;28;20046;-74
2022/07/20 06:47:58;;;;;;;38.95;29.15;;;25.70;67.60;;;;;;5000317;28;20061;-72
2022/07/20 06:50:24;;;;;;;45.35;36.15;;;25.80;65.70;;;;;;5010823;28;20499;-73
2022/07/20 06:52:50;;;;;;;34.67;26.13;;;25.80;67.40;;;;;;5019392;28;20018;-73
2022/07/20 06:55:15;;;;;;;42.08;30.20;;;25.80;65.70;;;;;;5008755;28;20591;-73
2022/07/20 06:57:41;;;;;;;38.75;30.05;;;25.90;67.00;;;;;;5023374;28;20033;-72
2022/07/20 07:00:08;;;;;;;29.20;23.15;;;25.80;66.70;;;;;;5009513;28;20476;-73
2022/07/20 07:02:34;;;;;;;32.00;26.10;;;26.00;64.00;;;;;;5014941;28;20021;-74
2022/07/20 07:04:59;;;;;;;30.52;24.15;;;26.10;63.10;;;;;;5026106;28;20025;-74
2022/07/20 07:07:25;;;;;;;28.17;22.17;;;26.20;63.30;;;;;;5014434;28;20053;-74
2022/07/20 07:09:51;;;;;;;28.55;21.80;;;26.40;63.00;;;;;;5027004;28;20026;-74
2022/07/20 07:12:16;;;;;;;34.65;26.35;;;26.40;59.30;;;;;;5016344;28;20034;-72
2022/07/20 07:14:42;;;;;;;31.08;21.42;;;26.40;62.80;;;;;;5024841;28;20022;-73
2022/07/20 07:17:08;;;;;;;32.65;25.90;;;26.40;60.80;;;;;;5017293;28;20026;-72
2022/07/20 07:19:36;;;;;;;25.58;19.90;;;26.50;61.20;;;;;;5006655;28;20018;-73
2022/07/20 07:22:02;;;;;;;36.08;24.20;;;26.60;59.80;;;;;;5010874;28;20025;-72
2022/07/20 07:24:27;;;;;;;23.63;18.13;;;26.60;62.40;;;;;;5019401;28;20043;-72
2022/07/20 07:26:53;;;;;;;27.20;20.80;;;26.60;58.50;;;;;;5004556;28;20041;-73
2022/07/20 07:29:19;;;;;;;22.10;17.45;;;26.70;59.10;;;;;;5000731;28;20030;-72
2022/07/20 07:31:45;;;;;;;27.23;20.08;;;26.80;58.10;;;;;;5025319;28;20032;-72
2022/07/20 07:34:11;;;;;;;33.95;22.80;;;26.80;60.20;;;;;;5025411;28;20476;-73
2022/07/20 07:36:39;;;;;;;25.05;20.60;;;26.80;60.80;;;;;;5024662;28;20431;-73
2022/07/20 07:39:05;;;;;;;25.15;17.23;;;26.80;60.50;;;;;;5015257;28;20485;-74
2022/07/20 07:41:30;;;;;;;22.42;16.50;;;26.80;60.50;;;;;;5018930;28;20057;-73
2022/07/20 07:43:56;;;;;;;25.27;16.98;;;27.00;59.30;;;;;;5018082;28;20065;-74
2022/07/20 07:46:22;;;;;;;20.85;15.88;;;27.10;59.60;;;;;;5018620;28;20108;-75
2022/07/20 07:48:47;;;;;;;25.67;17.92;;;27.20;57.60;;;;;;5018370;28;20034;-74
2022/07/20 07:51:13;;;;;;;19.52;15.55;;;27.30;58.30;;;;;;5022525;28;20030;-75
2022/07/20 07:53:39;;;;;;;17.35;13.90;;;27.30;58.30;;;;;;5002771;28;20026;-73
2022/07/20 07:56:04;;;;;;;18.00;14.23;;;27.30;58.00;;;;;;5020853;28;21361;-73
2022/07/20 07:58:30;;;;;;;21.33;16.67;;;27.40;58.40;;;;;;5019061;28;20029;-73
2022/07/20 08:00:56;;;;;;;21.63;14.43;;;27.50;57.70;;;;;;5004485;28;20025;-74
2022/07/20 08:03:22;;;;;;;20.02;15.38;;;27.60;57.30;;;;;;5018677;28;20033;-74
2022/07/20 08:05:48;;;;;;;19.48;13.55;;;27.50;58.10;;;;;;5018416;28;20034;-73
2022/07/20 08:08:16;;;;;;;19.73;13.55;;;27.60;58.20;;;;;;5016753;28;20403;-74
2022/07/20 08:10:43;;;;;;;24.40;16.23;;;27.60;59.00;;;;;;5017902;28;20044;-73
2022/07/20 08:13:09;;;;;;;23.65;14.48;;;27.70;57.40;;;;;;5014691;28;20922;-74
2022/07/20 08:15:36;;;;;;;17.13;12.48;;;27.70;56.90;;;;;;5022350;28;20037;-73
2022/07/20 08:18:03;;;;;;;20.08;12.45;;;27.80;57.20;;;;;;5020823;28;20028;-74
2022/07/20 08:20:29;;;;;;;17.15;11.85;;;27.90;56.20;;;;;;5022414;28;20472;-75
2022/07/20 08:22:54;;;;;;;20.13;11.50;;;28.10;55.20;;;;;;5022639;28;20040;-75
2022/07/20 08:25:21;;;;;;;19.02;11.65;;;28.20;54.90;;;;;;5021026;28;20032;-75
2022/07/20 08:27:47;;;;;;;16.25;11.32;;;28.30;54.80;;;;;;5019879;28;20029;-76
2022/07/20 08:30:13;;;;;;;13.20;9.93;;;28.40;54.80;;;;;;5017863;28;20780;-74
2022/07/20 08:32:39;;;;;;;19.08;12.77;;;28.50;54.60;;;;;;5015422;28;20025;-76
2022/07/20 08:35:05;;;;;;;15.70;10.85;;;28.60;53.40;;;;;;5016704;28;20048;-75
2022/07/20 08:37:31;;;;;;;19.52;11.57;;;28.50;53.30;;;;;;5015870;28;20108;-74
2022/07/20 08:39:57;;;;;;;17.63;12.00;;;28.40;54.00;;;;;;5022448;28;20184;-75
2022/07/20 08:42:23;;;;;;;19.90;14.63;;;28.40;53.80;;;;;;5022082;28;20332;-74
2022/07/20 08:44:50;;;;;;;17.95;12.15;;;28.50;53.20;;;;;;5021226;28;20433;-75
2022/07/20 08:47:16;;;;;;;19.05;12.35;;;28.50;53.70;;;;;;5022377;28;20037;-76
2022/07/20 08:49:47;;;;;;;18.50;12.18;;;28.40;53.60;;;;;;5021357;28;20075;-74
2022/07/20 08:52:14;;;;;;;18.17;13.07;;;28.50;54.10;;;;;;5019516;28;20554;-74
2022/07/20 08:54:39;;;;;;;18.17;11.70;;;28.40;54.50;;;;;;5022498;28;20404;-74
2022/07/20 08:57:09;;;;;;;21.08;11.30;;;28.50;54.70;;;;;;5016304;28;20018;-74
2022/07/20 08:59:35;;;;;;;;;;;28.70;54.30;;;;;;5008563;28;20049;-74
2022/07/20 09:02:04;;;;;;;15.00;10.90;;;28.90;54.20;;;;;;5019445;28;19959;-74
2022/07/20 09:04:30;;;;;;;16.67;10.68;;;29.00;53.90;;;;;;5010065;28;20125;-74
2022/07/20 09:06:56;;;;;;;18.70;11.75;;;29.20;53.70;;;;;;5020952;28;20046;-74
2022/07/20 09:09:23;;;;;;;18.98;11.55;;;29.50;53.10;;;;;;5010969;28;20029;-75
2022/07/20 09:11:49;;;;;;;14.55;10.48;;;29.60;52.80;;;;;;5021587;28;20109;-74
2022/07/20 09:14:40;;;;;;;15.68;9.82;;;29.90;51.70;;;;;;5009866;28;20040;-77
2022/07/20 09:17:21;;;;;;;11.82;8.52;;;30.00;50.90;;;;;;5039688;28;20028;-75
2022/07/20 09:19:55;;;;;;;14.85;10.00;;;30.00;51.20;;;;;;5026114;28;20056;-74
2022/07/20 09:22:36;;;;;;;16.48;9.40;;;30.30;50.40;;;;;;5021708;28;20063;-74
2022/07/20 09:25:15;;;;;;;21.38;11.75;;;30.40;49.70;;;;;;5022483;28;20052;-75
2022/07/20 09:27:42;;;;;;;13.98;8.77;;;30.50;50.30;;;;;;5015136;28;20025;-76
2022/07/20 09:30:11;;;;;;;13.68;8.45;;;30.50;50.60;;;;;;5029042;28;20056;-75
2022/07/20 09:32:55;;;;;;;13.85;10.07;;;30.60;50.80;;;;;;5011683;28;20018;-76
2022/07/20 09:35:23;;;;;;;17.63;9.93;;;30.60;49.80;;;;;;5007818;28;20029;-75
2022/07/20 09:37:50;;;;;;;14.48;8.65;;;30.60;49.80;;;;;;5000292;28;20465;-76
2022/07/20 09:40:16;;;;;;;23.00;9.80;;;30.80;50.20;;;;;;5028112;28;20029;-76
2022/07/20 09:42:43;;;;;;;13.93;8.85;;;30.80;48.90;;;;;;4997272;28;20021;-76
2022/07/20 09:45:27;;;;;;;13.85;8.45;;;30.70;48.40;;;;;;5028462;28;20020;-76
2022/07/20 09:48:07;;;;;;;13.80;8.52;;;30.80;48.50;;;;;;5016388;28;20488;-76
2022/07/20 09:50:39;;;;;;;13.32;8.13;;;30.90;48.50;;;;;;5011033;28;20428;-75
2022/07/20 09:53:07;;;;;;;11.40;8.48;;;31.00;48.00;;;;;;5024821;28;20072;-75
2022/07/20 09:55:34;;;;;;;14.43;7.95;;;31.10;48.00;;;;;;4990867;28;20512;-74
2022/07/20 09:58:00;;;;;;;16.48;8.55;;;31.00;49.50;;;;;;5011803;28;20022;-74
2022/07/20 10:00:27;;;;;;;12.07;8.57;;;31.00;48.40;;;;;;5009224;28;20116;-76
2022/07/20 10:02:57;;;;;;;14.05;9.10;;;31.00;48.10;;;;;;5012945;28;20114;-76
2022/07/20 10:05:23;;;;;;;11.00;7.60;;;30.90;48.30;;;;;;5008339;28;20223;-75
2022/07/20 10:07:50;;;;;;;13.52;8.65;;;30.90;48.00;;;;;;5019513;28;20083;-77
2022/07/20 10:10:16;;;;;;;13.82;8.43;;;30.90;48.00;;;;;;5024243;28;20037;-77
2022/07/20 10:12:42;;;;;;;16.77;8.82;;;30.90;48.30;;;;;;5023024;28;20041;-76
2022/07/20 10:15:37;;;;;;;13.52;8.10;;;31.00;47.50;;;;;;5004371;28;20029;-77
2022/07/20 10:18:07;;;;;;;13.23;7.88;;;31.00;48.70;;;;;;5020878;28;20025;-77
2022/07/20 10:20:36;;;;;;;;;;;31.00;48.50;;;;;;5023997;28;20014;-76
2022/07/20 10:23:15;;;;;;;12.48;6.75;;;30.90;47.60;;;;;;5004841;28;19916;-76
2022/07/20 10:25:42;;;;;;;14.47;8.37;;;31.00;48.50;;;;;;5022611;28;20029;-75
2022/07/20 10:28:28;;;;;;;14.93;8.02;;;31.10;46.90;;;;;;5026076;28;20039;-76
2022/07/20 10:30:57;;;;;;;10.95;7.68;;;31.30;47.40;;;;;;4994329;28;20235;-75
2022/07/20 10:33:23;;;;;;;11.68;7.95;;;31.50;46.70;;;;;;5012700;28;20022;-76
2022/07/20 10:35:50;;;;;;;14.35;8.02;;;31.70;45.60;;;;;;5014017;28;20022;-75
2022/07/20 10:38:20;;;;;;;14.63;8.10;;;31.90;46.10;;;;;;5018524;28;20030;-76
2022/07/20 10:44:22;;;;;;;18.30;9.73;;;32.10;46.30;;;;;;5013957;28;20155;-77
2022/07/20 10:46:49;;;;;;;9.80;7.28;;;32.20;46.80;;;;;;5008732;28;20045;-74
2022/07/20 10:49:16;;;;;;;11.40;8.30;;;32.20;48.30;;;;;;5011088;28;20029;-74
2022/07/20 10:51:43;;;;;;;11.27;6.88;;;32.40;47.00;;;;;;5023667;28;20037;-77
2022/07/20 10:54:44;;;;;;;14.93;9.40;;;32.60;47.20;;;;;;5021282;28;20042;-76
2022/07/20 10:57:10;;;;;;;11.88;8.88;;;32.80;45.10;;;;;;4928766;29;20031;-76
2022/07/20 10:59:36;;;;;;;9.43;7.15;;;32.70;45.30;;;;;;5001819;28;20042;-75
2022/07/20 11:02:02;;;;;;;9.18;6.22;;;32.50;47.10;;;;;;5005052;28;20022;-76
2022/07/20 11:04:27;;;;;;;12.32;6.70;;;32.30;45.90;;;;;;5022877;28;20514;-76
2022/07/20 11:06:53;;;;;;;14.57;7.47;;;32.30;47.80;;;;;;5014122;28;20022;-76
2022/07/20 11:09:18;;;;;;;10.18;6.68;;;32.30;46.30;;;;;;4992855;28;20041;-76
2022/07/20 11:11:44;;;;;;;13.82;8.13;;;32.30;47.80;;;;;;5016671;28;20022;-75
2022/07/20 11:14:11;;;;;;;12.45;7.15;;;32.50;46.70;;;;;;5015943;28;20037;-73
2022/07/20 11:16:38;;;;;;;9.63;6.55;;;32.50;47.30;;;;;;5028137;28;20029;-74
2022/07/20 11:19:06;;;;;;;11.15;6.25;;;32.50;48.00;;;;;;5027463;28;20021;-73
2022/07/20 11:21:38;;;;;;;9.10;6.35;;;32.40;46.70;;;;;;5016018;28;20105;-73
2022/07/20 11:24:19;;;;;;;13.02;6.68;;;32.20;45.50;;;;;;5028156;28;20057;-73
2022/07/20 11:26:44;;;;;;;9.07;6.03;;;32.10;45.60;;;;;;5021410;28;20087;-73
2022/07/20 11:29:14;;;;;;;9.73;6.28;;;32.00;46.00;;;;;;4993237;28;20244;-73
2022/07/20 11:31:40;;;;;;;9.70;5.88;;;32.20;45.30;;;;;;5001298;28;20022;-74
2022/07/20 11:34:05;;;;;;;9.43;6.15;;;32.30;45.90;;;;;;5016698;28;20163;-73
2022/07/20 11:36:34;;;;;;;11.43;6.82;;;32.60;45.10;;;;;;5029123;28;20172;-75
2022/07/20 11:39:04;;;;;;;11.40;5.97;;;32.80;43.90;;;;;;5012075;28;20021;-74
2022/07/20 11:41:29;;;;;;;12.05;6.20;;;32.80;44.60;;;;;;5025266;28;20029;-74
2022/07/20 11:43:57;;;;;;;11.05;6.07;;;32.90;43.50;;;;;;5010867;28;20026;-74
2022/07/20 11:46:28;;;;;;;8.63;6.15;;;32.90;43.90;;;;;;5020471;28;20553;-75
2022/07/20 11:49:02;;;;;;;12.82;6.57;;;33.10;44.10;;;;;;4994534;28;20380;-75
2022/07/20 11:51:29;;;;;;;12.52;6.97;;;33.30;45.10;;;;;;5019529;28;20093;-75
2022/07/20 11:53:56;;;;;;;10.35;5.45;;;33.30;42.80;;;;;;5029535;28;20582;-74
2022/07/20 11:56:24;;;;;;;11.05;5.80;;;33.20;42.70;;;;;;5008032;28;20029;-73
2022/07/20 11:58:52;;;;;;;8.40;5.10;;;33.10;43.90;;;;;;4997052;28;20022;-74
2022/07/20 12:01:22;;;;;;;11.70;6.30;;;33.00;44.60;;;;;;5022760;28;20022;-73
2022/07/20 12:03:50;;;;;;;;;;;33.10;43.00;;;;;;5030880;28;20064;-72
2022/07/20 12:06:15;;;;;;;9.10;5.47;;;33.10;44.10;;;;;;5026096;28;19924;-72
2022/07/20 12:08:42;;;;;;;12.45;5.78;;;33.20;43.30;;;;;;5029154;28;20560;-72
2022/07/20 12:11:12;;;;;;;6.72;4.57;;;33.50;42.50;;;;;;5028403;28;20132;-73
2022/07/20 12:13:49;;;;;;;8.40;5.03;;;33.50;46.10;;;;;;5018640;28;20075;-75
2022/07/20 12:16:16;;;;;;;7.38;5.40;;;33.30;42.20;;;;;;5028637;28;20135;-74
2022/07/20 12:18:44;;;;;;;8.73;4.93;;;33.10;42.80;;;;;;5018738;28;20116;-73
2022/07/20 12:21:16;;;;;;;11.38;6.07;;;33.20;47.00;;;;;;5028355;28;20029;-73
2022/07/20 12:23:44;;;;;;;8.43;6.03;;;33.30;42.30;;;;;;5019200;28;20029;-73
2022/07/20 12:26:31;;;;;;;10.60;6.18;;;33.40;43.20;;;;;;5028925;28;20029;-74
2022/07/20 12:29:18;;;;;;;7.45;5.35;;;33.40;43.20;;;;;;5017487;28;20026;-74
2022/07/20 12:31:44;;;;;;;8.07;5.78;;;33.50;45.00;;;;;;5007507;28;20033;-74
2022/07/20 12:34:14;;;;;;;7.68;4.88;;;33.80;45.90;;;;;;4996742;28;20064;-72
2022/07/20 12:36:39;;;;;;;;;;;33.80;43.90;;;;;;4994001;28;20196;-74
2022/07/20 12:39:09;;;;;;;7.07;4.70;;;33.80;42.10;;;;;;5018265;28;19996;-73
2022/07/20 12:41:35;;;;;;;11.32;5.60;;;33.70;45.60;;;;;;5029240;28;20048;-73
2022/07/20 12:44:28;;;;;;;8.50;5.68;;;33.80;44.30;;;;;;5017216;28;20028;-73
2022/07/20 12:46:56;;;;;;;7.10;5.10;;;33.80;41.90;;;;;;5028352;28;20069;-74